createdAt,value
2022-12-31T00:01:30.868Z,100351.97
2022-12-31T00:03:59.745Z,100358.56
2022-12-31T00:06:36.628Z,100357.75
2022-12-31T00:09:09.217Z,100355.94
2022-12-31T00:11:38.396Z,100353.38
2022-12-31T00:14:08.632Z,100350.16
2022-12-31T00:16:40.593Z,100344.72
2022-12-31T00:19:12.180Z,100330.97
2022-12-31T00:21:40.992Z,100342.94
2022-12-31T00:24:13.313Z,100336.16
2022-12-31T00:26:41.767Z,100357.91
2022-12-31T00:29:11.298Z,100357.16
2022-12-31T00:31:40.732Z,100364.06
2022-12-31T00:34:09.377Z,100360.72
2022-12-31T00:36:41.549Z,100371.53
2022-12-31T00:39:12.269Z,100368.25
2022-12-31T00:41:41.132Z,100364.41
2022-12-31T00:44:14.199Z,100360.81
2022-12-31T00:49:11.776Z,100361.16
2022-12-31T00:51:40.361Z,100369.81
2022-12-31T00:54:10.568Z,100361.19
2022-12-31T00:56:39.347Z,100369.97
2022-12-31T00:59:09.492Z,100363.13
2022-12-31T01:01:40.483Z,100351.16
2022-12-31T01:04:11.958Z,100349.72
2022-12-31T01:06:41.160Z,100348.34
2022-12-31T01:09:12.296Z,100356.91
2022-12-31T01:11:41.372Z,100353.03
2022-12-31T01:14:13.632Z,100346.59
2022-12-31T01:16:45.520Z,100353.56
2022-12-31T01:19:17.543Z,100359.47
2022-12-31T01:21:47.609Z,100367.66
2022-12-31T01:24:20.837Z,100360.88
2022-12-31T01:26:50.834Z,100360.13
2022-12-31T01:29:19.578Z,100372.41
2022-12-31T01:31:48.804Z,100366.31
2022-12-31T01:34:17.218Z,100375.09
2022-12-31T01:36:45.866Z,100366.78
2022-12-31T01:39:16.007Z,100360.00
2022-12-31T01:41:48.019Z,100353.09
2022-12-31T01:44:57.596Z,100346.63
2022-12-31T01:47:38.170Z,100352.06
2022-12-31T01:50:16.481Z,100357.78
2022-12-31T01:52:49.368Z,100361.97
2022-12-31T01:55:23.780Z,100374.06
2022-12-31T01:57:57.167Z,100367.59
2022-12-31T02:00:25.729Z,100365.16
2022-12-31T02:02:54.653Z,100359.44
2022-12-31T02:05:31.118Z,100353.91
2022-12-31T02:08:00.023Z,100354.53
2022-12-31T02:10:30.132Z,100355.34
2022-12-31T02:12:59.226Z,100353.25
2022-12-31T02:15:36.865Z,100339.66
2022-12-31T02:18:16.703Z,100340.38
2022-12-31T02:21:29.937Z,100359.69
2022-12-31T02:24:36.469Z,100347.91
2022-12-31T02:27:14.172Z,100333.97
2022-12-31T02:30:20.608Z,100349.97
2022-12-31T02:33:15.668Z,100354.94
2022-12-31T02:35:50.360Z,100339.75
2022-12-31T02:38:23.767Z,100344.19
2022-12-31T02:40:53.940Z,100360.22
2022-12-31T02:43:22.532Z,100354.50
2022-12-31T02:46:08.943Z,100361.69
2022-12-31T02:48:47.184Z,100353.72
2022-12-31T02:51:35.453Z,100372.00
2022-12-31T02:54:34.195Z,100369.72
2022-12-31T02:57:12.417Z,100346.63
2022-12-31T03:00:06.267Z,100356.91
2022-12-31T03:02:40.158Z,100353.44
2022-12-31T03:05:10.540Z,100348.66
2022-12-31T03:07:41.594Z,100369.31
2022-12-31T03:10:11.043Z,100368.09
2022-12-31T03:12:49.308Z,100356.91
2022-12-31T03:15:24.643Z,100372.16
2022-12-31T03:18:00.189Z,100371.34
2022-12-31T03:20:49.950Z,100373.69
2022-12-31T03:23:23.683Z,100372.72
2022-12-31T03:25:51.469Z,100378.56
2022-12-31T03:28:23.985Z,100393.59
2022-12-31T03:30:54.863Z,100384.78
2022-12-31T03:33:26.050Z,100384.06
2022-12-31T03:35:55.116Z,100373.16
2022-12-31T03:38:26.467Z,100365.53
2022-12-31T03:40:55.062Z,100383.59
2022-12-31T03:43:23.846Z,100381.31
2022-12-31T03:45:54.592Z,100373.63
2022-12-31T03:48:25.555Z,100385.69
2022-12-31T03:50:54.411Z,100396.16
2022-12-31T03:53:23.281Z,100385.59
2022-12-31T03:55:53.416Z,100381.34
2022-12-31T03:58:22.809Z,100381.53
2022-12-31T04:00:52.332Z,100362.97
2022-12-31T04:03:21.216Z,100353.22
2022-12-31T04:05:56.462Z,100350.94
2022-12-31T04:08:25.230Z,100348.84
2022-12-31T04:10:53.916Z,100328.16
2022-12-31T04:13:22.617Z,100334.94
2022-12-31T04:15:52.541Z,100335.44
2022-12-31T04:18:21.110Z,100352.63
2022-12-31T04:20:49.733Z,100335.53
2022-12-31T04:23:20.128Z,100341.91
2022-12-31T04:25:48.906Z,100352.19
2022-12-31T04:28:17.877Z,100346.41
2022-12-31T04:30:47.892Z,100336.22
2022-12-31T04:33:16.492Z,100330.47
2022-12-31T04:35:46.294Z,100350.31
2022-12-31T04:38:15.186Z,100354.03
2022-12-31T04:41:00.885Z,100343.31
2022-12-31T04:43:29.730Z,100337.91
2022-12-31T04:45:58.242Z,100357.03
2022-12-31T04:48:27.258Z,100373.25
2022-12-31T04:50:56.205Z,100379.50
2022-12-31T04:53:25.077Z,100368.69
2022-12-31T04:55:55.548Z,100368.34
2022-12-31T04:58:24.531Z,100367.13
2022-12-31T05:00:54.751Z,100368.69
2022-12-31T05:03:30.452Z,100352.84
2022-12-31T05:06:03.503Z,100359.88
2022-12-31T05:08:32.910Z,100362.06
2022-12-31T05:11:03.095Z,100358.81
2022-12-31T05:13:33.627Z,100369.31
2022-12-31T05:16:03.555Z,100373.06
2022-12-31T05:18:33.572Z,100371.66
2022-12-31T05:21:03.564Z,100380.47
2022-12-31T05:23:32.769Z,100376.34
2022-12-31T05:26:03.088Z,100362.00
2022-12-31T05:28:32.742Z,100377.31
2022-12-31T05:31:02.136Z,100379.72
2022-12-31T05:33:31.182Z,100386.09
2022-12-31T05:35:59.771Z,100392.06
2022-12-31T05:38:28.743Z,100389.25
2022-12-31T05:41:08.915Z,100380.78
2022-12-31T05:43:39.232Z,100390.13
2022-12-31T05:46:07.912Z,100385.72
2022-12-31T05:48:36.402Z,100374.75
2022-12-31T05:51:10.819Z,100368.75
2022-12-31T05:53:39.749Z,100372.00
2022-12-31T05:56:12.212Z,100380.06
2022-12-31T05:58:41.278Z,100387.75
2022-12-31T06:01:09.935Z,100373.03
2022-12-31T06:03:38.975Z,100371.03
2022-12-31T06:06:08.404Z,100372.78
2022-12-31T06:08:37.333Z,100373.44
2022-12-31T06:11:06.639Z,100380.09
2022-12-31T06:13:37.044Z,100379.28
2022-12-31T06:16:08.594Z,100373.13
2022-12-31T06:18:38.969Z,100366.31
2022-12-31T06:21:11.475Z,100375.16
2022-12-31T06:23:44.264Z,100375.81
2022-12-31T06:26:13.695Z,100383.28
2022-12-31T06:28:44.372Z,100387.63
2022-12-31T06:31:20.085Z,100392.41
2022-12-31T06:33:49.273Z,100392.31
2022-12-31T06:36:22.670Z,100388.97
2022-12-31T06:38:51.663Z,100384.84
2022-12-31T06:41:20.720Z,100385.84
2022-12-31T06:43:50.878Z,100382.84
2022-12-31T06:46:20.214Z,100386.72
2022-12-31T06:48:49.041Z,100384.34
2022-12-31T06:51:20.564Z,100391.41
2022-12-31T06:53:50.991Z,100394.09
2022-12-31T06:56:26.583Z,100392.03
2022-12-31T06:59:00.876Z,100394.31
2022-12-31T07:01:44.851Z,100401.03
2022-12-31T07:05:00.853Z,100400.78
2022-12-31T07:07:36.483Z,100389.41
2022-12-31T07:10:21.584Z,100404.25
2022-12-31T07:14:04.377Z,100394.56
2022-12-31T07:17:01.779Z,100401.09
2022-12-31T07:19:51.065Z,100400.44
2022-12-31T07:22:24.505Z,100380.03
2022-12-31T07:24:55.630Z,100386.56
2022-12-31T07:27:50.183Z,100385.75
2022-12-31T07:30:26.173Z,100390.41
2022-12-31T07:33:22.862Z,100388.53
2022-12-31T07:36:03.874Z,100391.84
2022-12-31T07:38:43.707Z,100400.56
2022-12-31T07:41:26.696Z,100399.91
2022-12-31T07:44:05.143Z,100407.50
2022-12-31T07:46:51.415Z,100407.13
2022-12-31T07:49:21.624Z,100402.44
2022-12-31T07:51:51.515Z,100411.00
2022-12-31T07:54:21.100Z,100420.31
2022-12-31T07:56:51.202Z,100417.78
2022-12-31T07:59:36.518Z,100414.88
2022-12-31T08:02:18.248Z,100419.50
2022-12-31T08:04:58.473Z,100428.16
2022-12-31T08:07:38.347Z,100418.16
2022-12-31T08:10:18.296Z,100430.75
2022-12-31T08:12:53.184Z,100439.81
2022-12-31T08:15:28.454Z,100428.69
2022-12-31T08:18:01.289Z,100421.16
2022-12-31T08:20:33.230Z,100431.41
2022-12-31T08:23:26.004Z,100437.31
2022-12-31T08:26:13.075Z,100437.31
2022-12-31T08:29:02.849Z,100446.88
2022-12-31T08:31:42.625Z,100438.91
2022-12-31T08:34:28.094Z,100442.97
2022-12-31T08:37:02.748Z,100447.84
2022-12-31T08:39:56.480Z,100448.22
2022-12-31T08:42:40.571Z,100449.69
2022-12-31T08:45:21.300Z,100429.44
2022-12-31T08:48:00.421Z,100424.28
2022-12-31T08:50:31.908Z,100438.63
2022-12-31T08:53:01.967Z,100447.81
2022-12-31T08:55:31.933Z,100431.75
2022-12-31T08:58:22.361Z,100434.75
2022-12-31T09:00:54.630Z,100438.25
2022-12-31T09:04:01.171Z,100439.25
2022-12-31T09:06:37.271Z,100452.06
2022-12-31T09:09:18.425Z,100461.97
2022-12-31T09:11:58.579Z,100451.94
2022-12-31T09:14:44.954Z,100457.03
2022-12-31T09:17:44.916Z,100459.00
2022-12-31T09:20:36.338Z,100474.56
2022-12-31T09:23:16.554Z,100493.44
2022-12-31T09:26:08.425Z,100492.25
2022-12-31T09:28:49.248Z,100490.53
2022-12-31T09:31:33.308Z,100495.72
2022-12-31T09:34:10.698Z,100498.91
2022-12-31T09:36:48.201Z,100494.16
2022-12-31T09:39:32.374Z,100497.34
2022-12-31T09:42:54.407Z,100514.25
2022-12-31T09:46:20.874Z,100512.06
2022-12-31T09:49:37.827Z,100515.72
2022-12-31T09:52:18.405Z,100525.03
2022-12-31T09:55:09.580Z,100525.41
2022-12-31T09:57:47.319Z,100521.25
2022-12-31T10:00:26.222Z,100533.38
2022-12-31T10:03:17.758Z,100541.94
2022-12-31T10:06:05.180Z,100535.31
2022-12-31T10:09:02.369Z,100527.22
2022-12-31T10:11:53.689Z,100534.34
2022-12-31T10:14:46.923Z,100530.69
2022-12-31T10:17:37.158Z,100536.06
2022-12-31T10:20:31.747Z,100560.09
2022-12-31T10:23:22.049Z,100553.34
2022-12-31T10:26:25.142Z,100559.25
2022-12-31T10:29:01.401Z,100558.22
2022-12-31T10:32:00.212Z,100551.50
2022-12-31T10:34:43.940Z,100559.59
2022-12-31T10:37:19.377Z,100571.09
2022-12-31T10:39:57.258Z,100565.09
2022-12-31T10:43:11.332Z,100568.03
2022-12-31T10:46:44.440Z,100572.34
2022-12-31T10:50:16.545Z,100553.72
2022-12-31T10:53:33.517Z,100570.88
2022-12-31T10:56:40.170Z,100580.69
2022-12-31T11:00:01.619Z,100562.66
2022-12-31T11:03:32.884Z,100566.84
2022-12-31T11:07:30.905Z,100571.00
2022-12-31T11:10:50.323Z,100574.78
2022-12-31T11:14:22.157Z,100590.22
2022-12-31T11:17:13.777Z,100591.22
2022-12-31T11:20:00.540Z,100575.50
2022-12-31T11:23:07.455Z,100587.31
2022-12-31T11:25:49.351Z,100582.13
2022-12-31T11:28:44.599Z,100590.25
2022-12-31T11:31:41.973Z,100589.25
2022-12-31T11:34:28.293Z,100586.06
2022-12-31T11:37:23.890Z,100583.63
2022-12-31T11:40:06.138Z,100590.00
2022-12-31T11:42:47.686Z,100592.94
2022-12-31T11:45:35.479Z,100585.34
2022-12-31T11:48:31.390Z,100580.69
2022-12-31T11:51:35.409Z,100582.75
2022-12-31T11:54:51.227Z,100564.72
2022-12-31T11:57:26.752Z,100559.09
2022-12-31T12:00:00.196Z,100578.22
2022-12-31T12:02:31.397Z,100570.63
2022-12-31T12:05:11.075Z,100564.13
2022-12-31T12:07:41.998Z,100580.91
2022-12-31T12:10:29.096Z,100581.03
2022-12-31T12:13:02.759Z,100569.66
2022-12-31T12:15:37.164Z,100566.00
2022-12-31T12:18:11.202Z,100567.47
2022-12-31T12:20:42.673Z,100556.91
2022-12-31T12:23:18.022Z,100548.53
2022-12-31T12:25:48.047Z,100540.97
2022-12-31T12:28:23.644Z,100541.81
2022-12-31T12:30:59.882Z,100553.72
2022-12-31T12:33:30.781Z,100528.94
2022-12-31T12:36:12.986Z,100530.19
2022-12-31T12:38:41.631Z,100527.22
2022-12-31T12:41:20.183Z,100521.34
2022-12-31T12:43:48.755Z,100518.59
2022-12-31T12:46:24.679Z,100504.41
2022-12-31T12:48:58.001Z,100516.28
2022-12-31T12:51:59.464Z,100509.50
2022-12-31T12:54:48.183Z,100525.38
2022-12-31T12:57:26.204Z,100533.72
2022-12-31T13:00:10.462Z,100560.22
2022-12-31T13:03:16.947Z,100605.19
2022-12-31T13:06:09.240Z,100591.59
2022-12-31T13:08:59.701Z,100590.47
2022-12-31T13:11:42.364Z,100586.31
2022-12-31T13:14:26.996Z,100580.31
2022-12-31T13:17:05.510Z,100573.44
2022-12-31T13:19:41.993Z,100588.53
2022-12-31T13:22:21.349Z,100578.47
2022-12-31T13:25:00.976Z,100576.28
2022-12-31T13:27:35.176Z,100558.50
2022-12-31T13:30:17.514Z,100558.50
2022-12-31T13:32:51.212Z,100564.00
2022-12-31T13:35:33.008Z,100563.25
2022-12-31T13:38:07.774Z,100565.22
2022-12-31T13:40:49.183Z,100569.16
2022-12-31T13:43:27.613Z,100571.34
2022-12-31T13:46:09.932Z,100566.97
2022-12-31T13:48:49.553Z,100568.91
2022-12-31T13:51:31.330Z,100575.19
2022-12-31T13:54:06.513Z,100568.44
2022-12-31T13:56:40.226Z,100576.78
2022-12-31T13:59:17.994Z,100578.75
2022-12-31T14:01:57.309Z,100569.66
2022-12-31T14:04:33.047Z,100587.53
2022-12-31T14:07:12.704Z,100576.88
2022-12-31T14:09:42.577Z,100582.78
2022-12-31T14:15:24.684Z,100570.63
2022-12-31T14:18:08.094Z,100578.09
2022-12-31T14:20:48.974Z,100588.78
2022-12-31T14:23:41.700Z,100589.25
2022-12-31T14:26:21.475Z,100589.00
2022-12-31T14:29:03.620Z,100612.19
2022-12-31T14:31:57.031Z,100615.84
2022-12-31T14:34:42.246Z,100613.41
2022-12-31T14:37:19.853Z,100626.75
2022-12-31T14:40:00.581Z,100623.09
2022-12-31T14:42:38.047Z,100618.22
2022-12-31T14:45:27.728Z,100615.25
2022-12-31T14:48:02.989Z,100612.94
2022-12-31T14:50:35.063Z,100624.06
2022-12-31T14:53:21.337Z,100623.97
2022-12-31T14:56:00.545Z,100627.66
2022-12-31T14:58:39.732Z,100619.53
2022-12-31T15:01:22.861Z,100626.41
2022-12-31T15:03:51.899Z,100642.97
2022-12-31T15:06:56.471Z,100641.13
2022-12-31T15:10:03.295Z,100645.41
2022-12-31T15:12:51.243Z,100641.59
2022-12-31T15:15:59.725Z,100651.03
2022-12-31T15:18:44.217Z,100649.69
2022-12-31T15:21:53.994Z,100609.34
2022-12-31T15:24:25.974Z,100615.00
2022-12-31T15:26:59.334Z,100630.59
2022-12-31T15:29:32.868Z,100617.09
2022-12-31T15:32:06.262Z,100597.09
2022-12-31T15:34:38.533Z,100595.41
2022-12-31T15:37:32.704Z,100606.41
2022-12-31T15:40:20.426Z,100597.84
2022-12-31T15:42:56.621Z,100612.19
2022-12-31T15:45:35.043Z,100590.72
2022-12-31T15:48:11.747Z,100605.69
2022-12-31T15:50:43.061Z,100596.88
2022-12-31T15:53:28.875Z,100602.63
2022-12-31T15:56:01.201Z,100587.31
2022-12-31T15:58:35.867Z,100594.66
2022-12-31T16:01:11.726Z,100603.22
2022-12-31T16:03:46.084Z,100593.19
2022-12-31T16:06:20.754Z,100601.41
2022-12-31T16:08:56.472Z,100605.91
2022-12-31T16:11:26.013Z,100598.44
2022-12-31T16:13:57.170Z,100589.50
2022-12-31T16:16:29.736Z,100572.09
2022-12-31T16:18:59.729Z,100572.47
2022-12-31T16:21:34.464Z,100564.72
2022-12-31T16:24:08.982Z,100564.97
2022-12-31T16:26:47.066Z,100549.19
2022-12-31T16:29:21.191Z,100550.66
2022-12-31T16:32:01.215Z,100553.09
2022-12-31T16:34:42.689Z,100548.94
2022-12-31T16:37:18.780Z,100534.84
2022-12-31T16:40:22.811Z,100540.84
2022-12-31T16:42:53.531Z,100530.44
2022-12-31T16:45:34.201Z,100535.06
2022-12-31T16:48:14.696Z,100526.63
2022-12-31T16:50:46.849Z,100541.44
2022-12-31T16:53:21.276Z,100538.78
2022-12-31T16:56:01.603Z,100522.22
2022-12-31T16:58:34.094Z,100524.53
2022-12-31T17:01:18.654Z,100520.03
2022-12-31T17:03:54.355Z,100509.25
2022-12-31T17:06:26.185Z,100514.00
2022-12-31T17:09:20.933Z,100536.22
2022-12-31T17:11:56.227Z,100541.66
2022-12-31T17:14:28.602Z,100523.56
2022-12-31T17:17:06.163Z,100502.00
2022-12-31T17:19:46.653Z,100500.28
2022-12-31T17:22:34.217Z,100514.97
2022-12-31T17:25:10.427Z,100505.41
2022-12-31T17:27:40.497Z,100511.97
2022-12-31T17:30:50.352Z,100496.97
2022-12-31T17:33:33.399Z,100493.13
2022-12-31T17:36:25.871Z,100491.69
2022-12-31T17:38:55.071Z,100474.16
2022-12-31T17:41:30.765Z,100491.25
2022-12-31T17:44:03.348Z,100483.44
2022-12-31T17:46:43.377Z,100494.41
2022-12-31T17:49:15.097Z,100493.88
2022-12-31T17:51:47.501Z,100506.59
2022-12-31T17:54:17.866Z,100492.50
2022-12-31T17:56:47.060Z,100495.06
2022-12-31T17:59:20.550Z,100512.59
2022-12-31T18:01:50.064Z,100497.25
2022-12-31T18:04:20.814Z,100506.13
2022-12-31T18:06:49.591Z,100508.94
2022-12-31T18:09:31.749Z,100510.75
2022-12-31T18:12:03.706Z,100505.13
2022-12-31T18:14:34.831Z,100506.94
2022-12-31T18:17:03.894Z,100494.59
2022-12-31T18:20:03.666Z,100503.69
2022-12-31T18:22:22.173Z,100500.69
2022-12-31T18:24:55.286Z,100495.47
2022-12-31T18:27:24.402Z,100506.78
2022-12-31T18:29:59.096Z,100499.50
2022-12-31T18:32:34.502Z,100499.72
2022-12-31T18:35:03.334Z,100496.19
2022-12-31T18:37:33.597Z,100498.94
2022-12-31T18:40:03.139Z,100488.88
2022-12-31T18:42:32.338Z,100496.69
2022-12-31T18:45:02.937Z,100493.69
2022-12-31T18:47:37.483Z,100514.09
2022-12-31T18:50:08.915Z,100506.44
2022-12-31T18:52:38.340Z,100506.41
2022-12-31T18:55:26.464Z,100513.19
2022-12-31T18:57:55.798Z,100516.13
2022-12-31T19:00:26.969Z,100509.16
2022-12-31T19:02:58.504Z,100499.97
2022-12-31T19:05:32.007Z,100515.88
2022-12-31T19:08:01.637Z,100510.34
2022-12-31T19:10:30.885Z,100504.63
2022-12-31T19:13:00.301Z,100487.63
2022-12-31T19:15:34.630Z,100490.88
2022-12-31T19:18:04.329Z,100501.84
2022-12-31T19:20:33.830Z,100517.69
2022-12-31T19:23:02.726Z,100503.13
2022-12-31T19:25:38.384Z,100514.19
2022-12-31T19:28:16.378Z,100504.91
2022-12-31T19:30:47.405Z,100502.53
2022-12-31T19:33:20.114Z,100512.28
2022-12-31T19:35:50.153Z,100515.69
2022-12-31T19:38:23.213Z,100514.00
2022-12-31T19:40:53.298Z,100502.41
2022-12-31T19:43:24.260Z,100494.78
2022-12-31T19:45:55.559Z,100507.16
2022-12-31T19:48:32.649Z,100517.66
2022-12-31T19:51:02.291Z,100504.66
2022-12-31T19:53:31.713Z,100523.78
2022-12-31T19:56:00.723Z,100540.09
2022-12-31T19:58:30.019Z,100523.03
2022-12-31T20:01:03.219Z,100533.69
2022-12-31T20:03:33.574Z,100520.84
2022-12-31T20:06:05.589Z,100540.47
2022-12-31T20:08:34.896Z,100530.19
2022-12-31T20:11:10.450Z,100527.22
2022-12-31T20:13:40.421Z,100533.72
2022-12-31T20:16:13.368Z,100539.22
2022-12-31T20:18:43.820Z,100540.59
2022-12-31T20:21:17.831Z,100541.22
2022-12-31T20:23:47.183Z,100548.31
2022-12-31T20:26:16.205Z,100545.84
2022-12-31T20:28:46.330Z,100552.25
2022-12-31T20:31:19.386Z,100557.88
2022-12-31T20:33:50.759Z,100560.69
2022-12-31T20:36:20.115Z,100561.06
2022-12-31T20:38:50.053Z,100553.22
2022-12-31T20:41:21.784Z,100546.72
2022-12-31T20:43:51.388Z,100547.81
2022-12-31T20:46:27.575Z,100550.41
2022-12-31T20:49:02.065Z,100543.41
2022-12-31T20:51:33.533Z,100552.72
2022-12-31T20:54:09.190Z,100548.69
2022-12-31T20:56:41.346Z,100554.81
2022-12-31T20:59:11.811Z,100554.94
2022-12-31T21:02:19.435Z,100567.22
2022-12-31T21:04:34.042Z,100554.69
2022-12-31T21:07:02.930Z,100553.22
2022-12-31T21:09:37.453Z,100565.25
2022-12-31T21:12:24.154Z,100561.31
2022-12-31T21:14:52.784Z,100569.91
2022-12-31T21:17:25.308Z,100569.66
2022-12-31T21:19:54.543Z,100573.81
2022-12-31T21:22:24.304Z,100579.47
2022-12-31T21:24:53.211Z,100569.41
2022-12-31T21:27:24.562Z,100574.81
2022-12-31T21:30:17.855Z,100571.47
2022-12-31T21:32:47.746Z,100587.75
2022-12-31T21:38:08.672Z,100599.56
2022-12-31T21:40:37.677Z,100605.44
2022-12-31T21:43:06.331Z,100610.81
2022-12-31T21:45:35.692Z,100618.19
2022-12-31T21:48:25.092Z,100614.41
2022-12-31T21:50:57.719Z,100600.06
2022-12-31T21:53:36.138Z,100609.38
2022-12-31T21:56:14.841Z,100612.59
2022-12-31T21:58:45.898Z,100607.75
2022-12-31T22:01:37.695Z,100602.38
2022-12-31T22:04:28.126Z,100594.41
2022-12-31T22:06:57.396Z,100604.13
2022-12-31T22:10:52.837Z,100618.81
2022-12-31T22:13:22.301Z,100617.81
2022-12-31T22:16:05.171Z,100613.78
2022-12-31T22:18:39.677Z,100613.28
2022-12-31T22:21:18.426Z,100609.38
2022-12-31T22:23:51.868Z,100612.31
2022-12-31T22:26:26.753Z,100613.19
2022-12-31T22:28:59.361Z,100623.34
2022-12-31T22:31:31.504Z,100616.72
2022-12-31T22:34:02.248Z,100606.53
2022-12-31T22:36:30.998Z,100618.47
2022-12-31T22:39:03.355Z,100619.81
2022-12-31T22:41:33.575Z,100622.38
2022-12-31T22:44:04.760Z,100625.09
2022-12-31T22:46:35.685Z,100610.25
2022-12-31T22:49:07.004Z,100629.13
2022-12-31T22:51:56.670Z,100623.72
2022-12-31T22:54:27.233Z,100617.22
2022-12-31T22:56:57.400Z,100618.09
2022-12-31T22:59:27.355Z,100616.88
2022-12-31T23:01:56.388Z,100627.16
2022-12-31T23:04:25.171Z,100626.78
2022-12-31T23:06:54.231Z,100631.84
2022-12-31T23:09:40.243Z,100645.22
2022-12-31T23:12:11.611Z,100642.41
2022-12-31T23:15:00.279Z,100650.84
2022-12-31T23:17:48.196Z,100645.91
2022-12-31T23:20:37.545Z,100658.47
2022-12-31T23:23:09.902Z,100657.50
2022-12-31T23:25:43.487Z,100658.91
2022-12-31T23:28:16.675Z,100656.69
2022-12-31T23:30:47.023Z,100679.88
2022-12-31T23:33:19.545Z,100683.41
2022-12-31T23:35:50.918Z,100694.97
2022-12-31T23:38:20.022Z,100685.34
2022-12-31T23:40:49.850Z,100683.66
2022-12-31T23:43:23.372Z,100690.53
2022-12-31T23:45:53.434Z,100693.41
2022-12-31T23:48:22.297Z,100689.41
2022-12-31T23:50:54.982Z,100696.19
2022-12-31T23:53:24.079Z,100693.06
2022-12-31T23:55:53.855Z,100683.16
2022-12-31T23:58:25.675Z,100691.56
